地図

経路データ

SID SEASON NUMBER BASIN SUBBASIN NAME ISO_TIME NATURE LAT LON WMO_WIND WMO_PRES WMO_AGENCY TRACK_TYPE DIST2LAND LANDFALL IFLAG USA_AGENCY USA_ATCF_ID USA_LAT USA_LON USA_RECORD USA_STATUS USA_WIND USA_PRES USA_SSHS USA_R34_NE USA_R34_SE USA_R34_SW USA_R34_NW USA_R50_NE USA_R50_SE USA_R50_SW USA_R50_NW USA_R64_NE USA_R64_SE USA_R64_SW USA_R64_NW USA_POCI USA_ROCI USA_RMW USA_EYE TOKYO_LAT TOKYO_LON TOKYO_GRADE TOKYO_WIND TOKYO_PRES TOKYO_R50_DIR TOKYO_R50_LONG TOKYO_R50_SHORT TOKYO_R30_DIR TOKYO_R30_LONG TOKYO_R30_SHORT TOKYO_LAND CMA_LAT CMA_LON CMA_CAT CMA_WIND CMA_PRES HKO_LAT HKO_LON HKO_CAT HKO_WIND HKO_PRES NEWDELHI_LAT NEWDELHI_LON NEWDELHI_GRADE NEWDELHI_WIND NEWDELHI_PRES NEWDELHI_CI NEWDELHI_DP NEWDELHI_POCI REUNION_LAT REUNION_LON REUNION_TYPE REUNION_WIND REUNION_PRES REUNION_TNUM REUNION_CI REUNION_RMW REUNION_R34_NE REUNION_R34_SE REUNION_R34_SW REUNION_R34_NW REUNION_R50_NE REUNION_R50_SE REUNION_R50_SW REUNION_R50_NW REUNION_R64_NE REUNION_R64_SE REUNION_R64_SW REUNION_R64_NW BOM_LAT BOM_LON BOM_TYPE BOM_WIND BOM_PRES BOM_TNUM BOM_CI BOM_RMW BOM_R34_NE BOM_R34_SE BOM_R34_SW BOM_R34_NW BOM_R50_NE BOM_R50_SE BOM_R50_SW BOM_R50_NW BOM_R64_NE BOM_R64_SE BOM_R64_SW BOM_R64_NW BOM_ROCI BOM_POCI BOM_EYE BOM_POS_METHOD BOM_PRES_METHOD NADI_LAT NADI_LON NADI_CAT NADI_WIND NADI_PRES WELLINGTON_LAT WELLINGTON_LON WELLINGTON_WIND WELLINGTON_PRES DS824_LAT DS824_LON DS824_STAGE DS824_WIND DS824_PRES TD9636_LAT TD9636_LON TD9636_STAGE TD9636_WIND TD9636_PRES TD9635_LAT TD9635_LON TD9635_WIND TD9635_PRES TD9635_ROCI NEUMANN_LAT NEUMANN_LON NEUMANN_CLASS NEUMANN_WIND NEUMANN_PRES MLC_LAT MLC_LON MLC_CLASS MLC_WIND MLC_PRES USA_GUST BOM_GUST BOM_GUST_PER REUNION_GUST REUNION_GUST_PER USA_SEAHGT USA_SEARAD_NE USA_SEARAD_SE USA_SEARAD_SW USA_SEARAD_NW STORM_SPEED STORM_DIR
1947245N22089 1947 61 NI BB NOT_NAMED 1947-09-01 18:00:00 TS 21.6000 89.1000 main 0 0 O________O____ jtwc_io IO101947 21.6000 89.1000 -1 21.6000 89.1000 TC 9 342
1947245N22089 1947 61 NI BB NOT_NAMED 1947-09-01 21:00:00 TS 22.0425 88.9428 main 0 0 P________P____ IO101947 22.0425 88.9428 -1 22.0425 88.9428 TC 9 341
1947245N22089 1947 61 NI BB NOT_NAMED 1947-09-02 00:00:00 TS 22.4000 88.8000 main 0 0 O________O____ jtwc_io IO101947 22.4000 88.8000 -1 22.4000 88.8000 TC 25 6 337
1947245N22089 1947 61 NI BB NOT_NAMED 1947-09-02 03:00:00 TS 22.6089 88.6866 main 0 0 P________PO___ IO101947 22.6100 88.6849 -1 22.6100 88.6849 TC 25 22.6000 88.7000 1 3 329
1947245N22089 1947 61 NI BB NOT_NAMED 1947-09-02 06:00:00 TS 22.6891 88.6075 main 0 0 O________OP___ jtwc_io IO101947 22.7000 88.6000 -1 22.7000 88.6000 TC 25 22.6455 88.6376 1 2 307
1947245N22089 1947 61 NI BB NOT_NAMED 1947-09-02 09:00:00 TS 22.7035 88.5527 main 0 0 P________PP___ IO101947 22.7075 88.5424 -1 22.7075 88.5424 TC 25 22.6927 88.5802 1 1 287
1947245N22089 1947 61 NI BB NOT_NAMED 1947-09-02 12:00:00 TS 22.7145 88.5109 main 0 0 O________OP___ jtwc_io IO101947 22.7000 88.5000 -1 22.7000 88.5000 TC 25 22.7436 88.5327 1 1 320
1947245N22089 1947 61 NI BB NOT_NAMED 1947-09-02 15:00:00 TS 22.7950 88.4667 main 0 0 P________PO___ IO101947 22.7925 88.4500 -1 22.7925 88.4500 TC 25 22.8000 88.5000 1 2 336
1947245N22089 1947 61 NI BB NOT_NAMED 1947-09-02 18:00:00 TS 22.8878 88.4269 main 0 0 O________OP___ jtwc_io IO101947 22.9000 88.4000 -1 22.9000 88.4000 TC 25 22.8634 88.4807 1 2 337
1947245N22089 1947 61 NI BB NOT_NAMED 1947-09-02 21:00:00 TS 22.9448 88.3923 main 0 0 P________PP___ IO101947 22.9500 88.3650 -1 22.9500 88.3650 TC 25 22.9344 88.4471 1 2 320
1947245N22089 1947 61 NI BB NOT_NAMED 1947-09-03 00:00:00 TS 23.0044 88.3217 main 0 0 O________OP___ jtwc_io IO101947 23.0000 88.3000 -1 23.0000 88.3000 TC 25 23.0132 88.3650 1 2 311
1947245N22089 1947 61 NI BB NOT_NAMED 1947-09-03 03:00:00 TS 23.0949 88.2016 main 0 0 P________PO___ IO101947 23.0923 88.2024 -1 23.0923 88.2024 TC 25 23.1000 88.2000 1 4 301
1947245N22089 1947 61 NI BB NOT_NAMED 1947-09-03 06:00:00 TS 23.1976 87.9759 main 0 0 O________OP___ jtwc_io IO101947 23.2000 88.0000 -1 23.2000 88.0000 TC 25 23.1929 87.9276 1 6 291
1947245N22089 1947 61 NI BB NOT_NAMED 1947-09-03 09:00:00 TS 23.2975 87.6250 main 0 0 P________PP___ IO101947 23.3000 87.6525 -1 23.3000 87.6525 TC 25 23.2926 87.5700 1 8 285
1947245N22089 1947 61 NI BB NOT_NAMED 1947-09-03 12:00:00 TS 23.3986 87.1841 main 0 0 O________OP___ jtwc_io IO101947 23.4000 87.2000 -1 23.4000 87.2000 TC 25 23.3959 87.1525 1 9 283
1947245N22089 1947 61 NI BB NOT_NAMED 1947-09-03 15:00:00 TS 23.5000 86.7050 main 0 0 P________PO___ IO101947 23.5000 86.7075 -1 23.5000 86.7075 TC 25 23.5000 86.7000 1 9 283
1947245N22089 1947 61 NI BB NOT_NAMED 1947-09-03 18:00:00 TS 23.6026 86.2206 main 0 0 O________OP___ jtwc_io IO101947 23.6000 86.2000 -1 23.6000 86.2000 TC 25 23.6079 86.2619 1 9 283
1947245N22089 1947 61 NI BB NOT_NAMED 1947-09-03 21:00:00 TS 23.7047 85.7650 main 0 0 P________PP___ IO101947 23.6997 85.7499 -1 23.6997 85.7499 TC 25 23.7146 85.7951 1 9 284
1947245N22089 1947 61 NI BB NOT_NAMED 1947-09-04 00:00:00 TS 23.8047 85.3019 main 0 0 O________OP___ jtwc_io IO101947 23.8000 85.3000 -1 23.8000 85.3000 TC 25 23.8140 85.3057 1 9 283
1947245N22089 1947 61 NI BB NOT_NAMED 1947-09-04 03:00:00 TS 23.9049 84.8100 main 0 0 P________PO___ IO101947 23.9073 84.8150 -1 23.9073 84.8150 TC 25 23.9000 84.8000 1 9 281
1947245N22089 1947 61 NI BB NOT_NAMED 1947-09-04 06:00:00 TS 23.9868 84.2896 main 0 0 O________OP___ jtwc_io IO101947 24.0000 84.3000 -1 24.0000 84.3000 TC 25 23.9605 84.2687 1 10 278
1947245N22089 1947 61 NI BB NOT_NAMED 1947-09-04 09:00:00 TS 24.0409 83.7373 main 0 0 P________PP___ IO101947 24.0575 83.7424 -1 24.0575 83.7424 TC 25 24.0078 83.7270 1 10 276
1947245N22089 1947 61 NI BB NOT_NAMED 1947-09-04 12:00:00 TS 24.0837 83.1989 main 0 0 O________OP___ jtwc_io IO101947 24.1000 83.2000 -1 24.1000 83.2000 TC 25 24.0511 83.1968 1 9 276
1947245N22089 1947 61 NI BB NOT_NAMED 1947-09-04 15:00:00 TS 24.1332 82.7183 main 0 0 P________PO___ IO101947 24.1498 82.7275 -1 24.1498 82.7275 TC 25 24.1000 82.7000 1 8 277
1947245N22089 1947 61 NI BB NOT_NAMED 1947-09-04 18:00:00 TS 24.1877 82.2839 main 0 0 O________OP___ jtwc_io IO101947 24.2000 82.3000 -1 24.2000 82.3000 TC 25 24.1631 82.2518 1 8 278
1947245N22089 1947 61 NI BB NOT_NAMED 1947-09-04 21:00:00 TS 24.2396 81.8749 main 0 0 P________PP___ IO101947 24.2423 81.8924 -1 24.2423 81.8924 TC 25 24.2343 81.8399 1 7 279
1947245N22089 1947 61 NI BB NOT_NAMED 1947-09-05 00:00:00 TS 24.3044 81.4860 main 0 0 O________OP___ jtwc_io IO101947 24.3000 81.5000 -1 24.3000 81.5000 TC 25 24.3133 81.4580 1 7 282
1947245N22089 1947 61 NI BB NOT_NAMED 1947-09-05 03:00:00 TS 24.3950 81.0900 main 0 0 P________PO___ IO101947 24.3925 81.0850 -1 24.3925 81.0850 TC 25 24.4000 81.1000 1 7 285
1947245N22089 1947 61 NI BB NOT_NAMED 1947-09-05 06:00:00 TS 24.4989 80.7097 main 0 0 O________OP___ jtwc_io IO101947 24.5000 80.7000 -1 24.5000 80.7000 TC 25 24.4967 80.7292 1 7 288
1947245N22089 1947 61 NI BB NOT_NAMED 1947-09-05 09:00:00 TS 24.5999 80.3792 main 0 0 P________PP___ IO101947 24.5999 80.3774 -1 24.5999 80.3774 TC 25 24.5999 80.3827 1 6 290
1947245N22089 1947 61 NI BB NOT_NAMED 1947-09-05 12:00:00 TS 24.7010 80.0899 main 0 0 O________OP___ jtwc_io IO101947 24.7000 80.1000 -1 24.7000 80.1000 TC 25 24.7031 80.0698 1 5 292
1947245N22089 1947 61 NI BB NOT_NAMED 1947-09-05 15:00:00 TS 24.8050 79.8183 main 0 0 P________PO___ IO101947 24.8075 79.8275 -1 24.8075 79.8275 TC 25 24.8000 79.8000 1 5 293
1947245N22089 1947 61 NI BB NOT_NAMED 1947-09-05 18:00:00 TS 24.8899 79.5952 main 0 0 O________OP___ jtwc_io IO101947 24.9000 79.6000 -1 24.9000 79.6000 TC 25 24.8696 79.5855 1 4 292
1947245N22089 1947 61 NI BB NOT_NAMED 1947-09-05 21:00:00 TS 24.9448 79.4322 main 0 0 P________PP___ IO101947 24.9499 79.4424 -1 24.9499 79.4424 TC 25 24.9345 79.4119 1 3 292
1947245N22089 1947 61 NI BB NOT_NAMED 1947-09-06 00:00:00 TS 25.0024 79.2858 main 0 0 O________OP___ jtwc_io IO101947 25.0000 79.3000 -1 25.0000 79.3000 TC 25 25.0071 79.2574 1 3 296
1947245N22089 1947 61 NI BB NOT_NAMED 1947-09-06 03:00:00 TS 25.0900 79.1050 main 0 0 P________PO___ IO101947 25.0850 79.1075 -1 25.0850 79.1075 TC 25 25.1000 79.1000 1 4 300
1947245N22089 1947 61 NI BB NOT_NAMED 1947-09-06 06:00:00 TS 25.2068 78.8957 main 0 0 O________OP___ jtwc_io IO101947 25.2000 78.9000 -1 25.2000 78.9000 TC 25 25.2204 78.8870 1 5 304
1947245N22089 1947 61 NI BB NOT_NAMED 1947-09-06 09:00:00 TS 25.3442 78.6901 main 0 0 P________PP___ IO101947 25.3350 78.7000 -1 25.3350 78.7000 TC 25 25.3627 78.6703 1 5 309
1947245N22089 1947 61 NI BB NOT_NAMED 1947-09-06 12:00:00 TS 25.5079 78.4894 main 0 0 O________OP___ jtwc_io IO101947 25.5000 78.5000 -1 25.5000 78.5000 TC 25 25.5236 78.4683 1 5 314
1947245N22089 1947 61 NI BB NOT_NAMED 1947-09-06 15:00:00 TS 25.6950 78.2851 main 0 0 P________PO___ IO101947 25.6925 78.2776 -1 25.6925 78.2776 TC 25 25.7000 78.3000 1 5 320
1947245N22089 1947 61 NI BB NOT_NAMED 1947-09-06 18:00:00 TS 25.9006 78.1216 main 0 0 O________OP___ jtwc_io IO101947 25.9000 78.1000 -1 25.9000 78.1000 TC 25 25.9017 78.1647 1 5 332
1947245N22089 1947 61 NI BB NOT_NAMED 1947-09-06 21:00:00 TS 26.1099 78.0358 main 0 0 P________PP___ IO101947 26.1075 78.0199 -1 26.1075 78.0199 TC 25 26.1148 78.0676 1 4 346
1947245N22089 1947 61 NI BB NOT_NAMED 1947-09-07 00:00:00 TS 26.3068 78.0039 main 0 0 O________OP___ jtwc_io IO101947 26.3000 78.0000 -1 26.3000 78.0000 TC 25 26.3205 78.0116 1 4 354
1947245N22089 1947 61 NI AS NOT_NAMED 1947-09-07 03:00:00 TS 26.4767 77.9850 main 0 0 P________PO___ IO101947 26.4650 77.9775 -1 26.4650 77.9775 TC 25 26.5000 78.0000 1 3 4
1947245N22089 1947 61 NI BB NOT_NAMED 1947-09-07 06:00:00 TS 26.6150 78.0051 main 0 0 O________OP___ jtwc_io IO101947 26.6000 78.0000 -1 26.6000 78.0000 TC 25 26.6449 78.0154 1 3 19
1947245N22089 1947 61 NI BB NOT_NAMED 1947-09-07 09:00:00 TS 26.7300 78.0815 main 0 0 P________PP___ IO101947 26.7150 78.0850 -1 26.7150 78.0850 TC 25 26.7599 78.0747 1 3 40
1947245N22089 1947 61 NI BB NOT_NAMED 1947-09-07 12:00:00 TS 26.8150 78.1906 main 0 0 O________OP___ jtwc_io IO101947 26.8000 78.2000 -1 26.8000 78.2000 TC 25 26.8449 78.1717 1 2 52
1947245N22089 1947 61 NI BB NOT_NAMED 1947-09-07 15:00:00 TS 26.8766 78.2900 main 0 0 P________PO___ IO101947 26.8649 78.2850 -1 26.8649 78.2850 TC 25 26.9000 78.3000 1 2 65
1947245N22089 1947 61 NI BB NOT_NAMED 1947-09-07 18:00:00 TS 26.9106 78.4213 main 0 0 O________OP___ jtwc_io IO101947 26.9000 78.4000 -1 26.9000 78.4000 TC 25 26.9264 78.4533 1 3 82
1947245N22089 1947 61 NI BB NOT_NAMED 1947-09-07 21:00:00 TS 26.9173 78.5994 main 0 0 P________PP___ IO101947 26.9076 78.5800 -1 26.9076 78.5800 TC 25 26.9303 78.6252 1 3 90
1947245N22089 1947 61 NI BB NOT_NAMED 1947-09-08 00:00:00 TS 26.9095 78.8048 main 0 0 O________OP___ jtwc_io IO101947 26.9000 78.8000 -1 26.9000 78.8000 TC 25 26.9190 78.8096 1 4 93
1947245N22089 1947 61 NI BB NOT_NAMED 1947-09-08 03:00:00 NR 26.9000 79.0000 main 0 __________O___ IO101947 -1 TC 26.9000 79.0000 1 3 93

IBTrACS Databaseについて

本データベースは、米国NOAAが公開する1842年以降の世界の熱帯低気圧のベストトラックデータアーカイブInternational Best Track Archive for Climate Stewardship (IBTrACS)を、ウェブで閲覧しやすい形式に変換したものです。

最終更新日:2021-11-26